EDDCEDLP

Guest
Details From EDDC - Dresden
To EDLP - Paderborn Lippstadt
Flight Number -
Tags Generated
Created
Modified
Stats Distance 195 nm / 362 km
Max Altitude 0 ft / 0 m
Waypoints 2
Social Downloads 0
Likes 0
Share VATSIM

Download

Looking for another format? Having issues loading an existing format? Contact us
Advertisement - Login to hide

Notes

Generated

Route

EDDC EDLP

ID Type Via Altitude Latitude Longitude Leg Dist Tot Dist Heading (true) Name
O EDDC APT - 0 ft / 0 m 51.12425˚ 13.75544˚ - 0 nm - -
O EDLP APT - 0 ft / 0 m 51.60888˚ 8.60309˚ 195 nm 195 nm 281° / 277° -

Altitude Profile

Advertisement - Login to hide

Weather


0- 5 10 15 20 25 30 35+ Temperature / ° C

Clouds and Precipitation
Forecast for 2018-05-23 06:00 UTC. Updated 20 minutes ago

Ground ~20,000 ft ~40,000 ft Winds

EDDC

Details ICAO EDDC (DRS)
Name Dresden
Region Germany - Civil
Timezone Europe/Berlin (UTC+2.0)
Stats Elevation 752 ft / 229 m (AMSL)
Location 51.134366° 13.768065°
Runways 1
Magnetic Variation 3.856° E

METAR

EDDC 230320Z 07005KT 040V100 9999 VCSH FEW038CB BKN047 13/10 Q1017

Decode

TAF

TAF AMD EDDC 230234Z 2302/2324 VRB03KT CAVOK PROB40 TEMPO 2302/2305 -TSRA FEW060CB BECMG 2304/2307 06005KT BECMG 2307/2310 06010KT BECMG 2316/2319 06005KT

Decode

Departure Runways

ID Width Length Bearing (true) Bearing (mag) Surface Threshold Offset Overrun Length
04 197 ft / 60 m 9,348 ft / 2,849 m 40.74° 36.88° Concrete 0 ft / 0 m 0 ft / 0 m
22 197 ft / 60 m 9,348 ft / 2,849 m 220.76° 216.90° Concrete 984 ft / 300 m 0 ft / 0 m

EDLP

Details ICAO EDLP (PAD)
Name Paderborn Lippstadt
Region Germany - Civil
Timezone Europe/Berlin (UTC+2.0)
Stats Elevation 699 ft / 213 m (AMSL)
Location 51.614166° 8.616336°
Runways 1
Magnetic Variation 2.416° E

METAR

EDLP 230320Z VRB02KT CAVOK 14/12 Q1017

Decode

TAF

TAF EDLP 222300Z 2300/2324 VRB03KT CAVOK BECMG 2307/2310 07010KT BECMG 2318/2321 08005KT

Decode

Destination Runways

ID Width Length Bearing (true) Bearing (mag) Surface Threshold Offset Overrun Length
06 148 ft / 45 m 7,136 ft / 2,175 m 57.28° 54.86° Asphalt 0 ft / 0 m 1,066 ft / 325 m
24 148 ft / 45 m 7,136 ft / 2,175 m 237.30° 234.88° Asphalt 0 ft / 0 m 397 ft / 121 m

Approach Navaids

Runway Type Ident Frequency Range Bearing (true) Bearing (mag) Slope Elevation
06 Localiser IPLE 111.70 MHz 18 nm / 33 km 57.13° 54.72° - 674 ft / 205 m (AMSL)
06 Glidescope IPLE 111.70 MHz 10 nm / 19 km 57.29° 54.87° 3.00° 699 ft / 213 m (AMSL)
24 Localiser IPLW 108.55 MHz 18 nm / 33 km 236.80° 234.38° - 699 ft / 213 m (AMSL)
24 Glidescope IPLW 108.55 MHz 10 nm / 19 km 237.29° 234.87° 3.00° 674 ft / 205 m (AMSL)